Time;durP1;ratioP1;P1;durP2;ratioP2;P2;SDS_P1;SDS_P2;PMS_P1;PMS_P2;Temp;Humidity;BMP_temperature;BMP_pressure;BME280_temperature;BME280_humidity;BME280_pressure;Samples;Min_cycle;Max_cycle;Signal;HPM_P1;HPM_P2
2023/06/08 00:02:15;;;;;;;11.10;8.40;;;;;;;14.89;58.27;100302.46;131000;1256;105819;-80
2023/06/08 00:05:21;;;;;;;10.20;7.80;;;;;;;14.85;58.35;100303.30;131132;1260;107605;-81
2023/06/08 00:08:29;;;;;;;9.80;7.40;;;;;;;14.83;58.59;100304.80;131039;1264;107549;-81
2023/06/08 00:11:35;;;;;;;9.80;7.50;;;;;;;14.82;58.82;100304.36;131057;1256;107464;-81
2023/06/08 00:14:40;;;;;;;11.70;7.60;;;;;;;14.78;58.66;100305.98;130997;1256;107354;-80
2023/06/08 00:17:46;;;;;;;10.90;7.70;;;;;;;14.74;58.86;100308.23;131119;1256;107248;-80
2023/06/08 00:20:51;;;;;;;9.60;7.70;;;;;;;14.69;58.73;100308.02;130978;1264;107476;-80
2023/06/08 00:23:57;;;;;;;9.10;7.40;;;;;;;14.64;58.93;100308.64;131006;1256;107467;-80
2023/06/08 00:27:03;;;;;;;11.00;8.20;;;;;;;14.59;59.06;100306.61;131084;1254;107267;-80
2023/06/08 00:30:10;;;;;;;10.30;7.80;;;;;;;14.51;59.23;100305.95;131104;1256;107373;-80
2023/06/08 00:33:16;;;;;;;10.00;7.80;;;;;;;14.46;59.37;100304.42;131091;1256;107240;-80
2023/06/08 00:36:21;;;;;;;11.20;8.20;;;;;;;14.41;59.48;100307.42;131057;1253;107505;-83
2023/06/08 00:39:27;;;;;;;9.60;8.20;;;;;;;14.35;59.47;100308.70;131040;1256;105688;-80
2023/06/08 00:42:33;;;;;;;10.30;8.20;;;;;;;14.31;59.63;100304.66;131140;1256;107214;-80
2023/06/08 00:45:39;;;;;;;12.30;8.30;;;;;;;14.28;59.65;100297.58;131033;1256;107480;-80
2023/06/08 00:48:45;;;;;;;9.40;7.90;;;;;;;14.25;59.84;100298.36;130999;1256;107523;-80
2023/06/08 00:51:50;;;;;;;11.00;8.70;;;;;;;14.23;59.89;100296.16;130805;1261;107582;-80
2023/06/08 00:54:58;;;;;;;14.80;8.10;;;;;;;14.18;59.96;100296.55;131041;1256;107408;-81
2023/06/08 00:58:04;;;;;;;10.70;8.00;;;;;;;14.13;59.89;100295.77;131083;1256;107637;-80
2023/06/08 01:01:17;;;;;;;9.60;8.30;;;;;;;14.09;59.93;100301.66;131103;1264;107841;-80
2023/06/08 01:04:23;;;;;;;9.10;7.60;;;;;;;14.05;60.03;100301.94;131053;1258;107516;-80
2023/06/08 01:07:36;;;;;;;10.90;7.20;;;;;;;14.00;60.21;100302.11;130923;1256;107536;-80
2023/06/08 01:10:53;;;;;;;8.90;6.70;;;;;;;13.96;60.33;100303.82;131010;1252;107563;-80
2023/06/08 01:14:06;;;;;;;8.50;7.30;;;;;;;13.97;60.30;100308.82;131086;1264;107349;-80
2023/06/08 01:17:17;;;;;;;9.00;7.30;;;;;;;13.93;60.35;100311.71;131067;1264;107554;-80
2023/06/08 01:20:38;;;;;;;9.10;7.80;;;;;;;13.92;60.37;100308.23;131060;1254;107481;-80
2023/06/08 01:23:56;;;;;;;9.70;7.30;;;;;;;13.93;60.55;100309.86;131170;1254;107543;-80
2023/06/08 01:27:06;;;;;;;9.30;7.00;;;;;;;13.94;60.56;100320.01;131050;1256;105590;-80
2023/06/08 01:30:13;;;;;;;10.00;7.30;;;;;;;13.91;60.66;100322.80;131078;1256;107246;-80
2023/06/08 01:33:22;;;;;;;8.30;7.50;;;;;;;13.87;60.74;100321.86;131079;1253;107386;-80
2023/06/08 01:36:35;;;;;;;9.70;7.40;;;;;;;13.84;60.88;100326.00;130971;1256;107527;-79
2023/06/08 01:39:52;;;;;;;8.70;7.40;;;;;;;13.79;60.82;100330.23;131029;1251;107580;-80
2023/06/08 01:43:02;;;;;;;12.00;8.00;;;;;;;13.73;60.85;100333.45;131074;1265;107391;-80
2023/06/08 01:46:11;;;;;;;9.50;7.50;;;;;;;13.68;60.76;100334.66;130975;1264;107547;-80
2023/06/08 01:49:18;;;;;;;8.00;6.90;;;;;;;13.68;60.85;100337.55;130985;1256;107505;-79
2023/06/08 01:52:26;;;;;;;8.90;7.40;;;;;;;13.66;61.00;100340.77;131048;1256;107494;-80
2023/06/08 01:55:32;;;;;;;8.70;7.40;;;;;;;13.62;61.14;100341.48;131034;1264;108006;-80
2023/06/08 01:58:37;;;;;;;8.60;6.80;;;;;;;13.56;61.31;100347.25;131050;1256;107453;-80
2023/06/08 02:01:43;;;;;;;8.30;7.20;;;;;;;13.53;61.24;100346.16;130920;1257;107391;-80
2023/06/08 02:04:48;;;;;;;8.60;7.40;;;;;;;13.51;61.45;100342.88;130719;1254;107634;-79
2023/06/08 02:07:55;;;;;;;9.60;7.70;;;;;;;13.47;61.21;100341.05;130939;1265;107498;-79
2023/06/08 02:11:01;;;;;;;10.10;7.50;;;;;;;13.43;61.43;100347.38;131028;1256;108648;-79
2023/06/08 02:14:07;;;;;;;10.80;8.20;;;;;;;13.39;61.46;100346.84;130997;1255;107472;-79
2023/06/08 02:17:26;;;;;;;8.80;7.80;;;;;;;13.36;61.56;100346.64;131057;1257;107518;-80
2023/06/08 02:20:34;;;;;;;9.70;7.80;;;;;;;13.31;61.68;100344.71;131191;1258;107559;-80
2023/06/08 02:23:40;;;;;;;9.90;7.60;;;;;;;13.30;61.73;100344.63;131042;1255;106800;-80
2023/06/08 02:26:46;;;;;;;10.40;8.00;;;;;;;13.28;61.71;100346.94;131062;1262;107364;-80
2023/06/08 02:29:51;;;;;;;10.00;7.70;;;;;;;13.26;61.69;100346.77;131019;1266;107418;-80
2023/06/08 02:32:57;;;;;;;8.60;7.20;;;;;;;13.28;61.76;100348.40;131050;1256;107445;-79
2023/06/08 02:36:03;;;;;;;10.00;7.20;;;;;;;13.29;61.75;100348.42;131039;1251;107610;-79
2023/06/08 02:39:10;;;;;;;10.00;7.60;;;;;;;13.29;61.61;100347.39;131103;1256;107531;-80
2023/06/08 02:42:18;;;;;;;9.30;7.30;;;;;;;13.31;61.90;100349.91;131044;1256;107509;-79
2023/06/08 02:45:24;;;;;;;10.90;8.30;;;;;;;13.36;61.78;100351.27;130883;1257;107241;-79
2023/06/08 02:48:33;;;;;;;10.50;7.80;;;;;;;13.41;61.84;100350.64;130835;1258;107417;-80
2023/06/08 02:51:39;;;;;;;9.70;7.70;;;;;;;13.43;61.84;100347.54;131088;1254;107510;-79
2023/06/08 02:54:45;;;;;;;10.80;8.40;;;;;;;13.43;61.88;100347.46;130876;1257;107576;-79
2023/06/08 02:57:52;;;;;;;11.50;8.60;;;;;;;13.43;62.02;100349.65;131107;1265;106464;-79
2023/06/08 03:01:00;;;;;;;10.40;8.70;;;;;;;13.43;62.05;100348.21;130844;1257;107451;-78
2023/06/08 03:04:12;;;;;;;9.00;7.50;;;;;;;13.46;62.06;100345.06;130882;1257;107559;-78
2023/06/08 03:07:22;;;;;;;8.90;8.00;;;;;;;13.49;62.11;100344.69;130875;1264;107505;-78
2023/06/08 03:10:34;;;;;;;11.00;8.20;;;;;;;13.51;62.13;100345.31;130901;1265;107417;-78
2023/06/08 03:13:41;;;;;;;10.50;8.40;;;;;;;13.56;62.35;100346.95;130912;1265;107539;-78
2023/06/08 03:16:48;;;;;;;11.00;8.00;;;;;;;13.69;62.22;100349.73;130897;1256;107477;-78
2023/06/08 03:19:54;;;;;;;10.00;8.30;;;;;;;13.91;62.34;100355.75;130824;1258;107486;-78
2023/06/08 03:23:04;;;;;;;10.20;8.70;;;;;;;14.08;62.27;100348.05;130907;1265;107644;-78
2023/06/08 03:26:10;;;;;;;10.60;8.60;;;;;;;14.26;62.13;100339.98;130944;1256;107495;-78
2023/06/08 03:29:16;;;;;;;14.30;7.60;;;;;;;14.50;62.08;100341.17;131059;1254;107535;-80
2023/06/08 03:32:22;;;;;;;10.50;8.30;;;;;;;14.73;62.10;100341.02;130966;1257;107369;-79
2023/06/08 03:35:28;;;;;;;8.70;7.10;;;;;;;14.99;61.94;100344.34;130973;1251;107382;-79
2023/06/08 03:38:49;;;;;;;8.50;6.90;;;;;;;15.27;61.74;100341.08;130787;1257;107457;-79
2023/06/08 03:41:56;;;;;;;8.30;6.80;;;;;;;15.53;61.69;100337.59;130991;1258;107422;-79
2023/06/08 03:45:03;;;;;;;8.20;6.60;;;;;;;15.86;61.75;100339.29;131091;1258;107650;-79
2023/06/08 03:48:08;;;;;;;7.60;6.80;;;;;;;16.20;61.45;100337.59;130914;1258;107564;-79
2023/06/08 03:51:15;;;;;;;8.20;7.30;;;;;;;16.49;61.22;100339.09;130920;1257;107507;-79
2023/06/08 03:54:20;;;;;;;8.20;6.90;;;;;;;16.73;61.18;100337.44;130900;1254;107526;-79
2023/06/08 03:57:26;;;;;;;8.10;7.30;;;;;;;16.97;61.02;100334.44;130832;1257;107523;-79
2023/06/08 04:00:31;;;;;;;8.30;7.40;;;;;;;17.19;60.94;100335.02;130904;1257;107560;-79
2023/06/08 04:03:37;;;;;;;8.90;7.10;;;;;;;17.39;61.05;100332.23;131066;1252;107582;-80
2023/06/08 04:06:44;;;;;;;7.80;6.80;;;;;;;17.51;61.05;100331.48;131259;1256;107430;-79
2023/06/08 04:09:51;;;;;;;8.20;7.30;;;;;;;17.67;61.01;100330.64;131088;1256;107532;-80
2023/06/08 04:12:56;;;;;;;7.80;7.10;;;;;;;17.85;61.20;100331.23;131126;1257;107539;-80
2023/06/08 04:16:03;;;;;;;8.80;7.90;;;;;;;18.05;61.23;100333.30;131088;1256;107531;-80
2023/06/08 04:19:10;;;;;;;8.50;7.60;;;;;;;18.22;61.45;100338.77;130841;1257;106569;-80
2023/06/08 04:22:16;;;;;;;8.80;7.50;;;;;;;18.40;61.48;100336.39;131072;1257;107409;-80
2023/06/08 04:25:24;;;;;;;8.40;7.50;;;;;;;18.59;61.54;100338.40;131056;1255;107430;-80
2023/06/08 04:28:31;;;;;;;8.10;7.00;;;;;;;18.75;61.75;100336.45;131048;1257;107386;-80
2023/06/08 04:31:37;;;;;;;8.00;7.20;;;;;;;18.91;61.75;100339.66;130805;1267;107534;-79
2023/06/08 04:34:42;;;;;;;8.60;7.50;;;;;;;19.09;61.70;100342.92;130889;1260;107304;-80
2023/06/08 04:37:48;;;;;;;7.90;7.10;;;;;;;19.25;61.69;100346.58;130998;1257;107433;-80
2023/06/08 04:40:55;;;;;;;8.80;7.10;;;;;;;19.40;61.49;100345.93;130978;1257;107504;-80
2023/06/08 04:44:10;;;;;;;7.80;6.50;;;;;;;19.50;61.41;100341.30;131177;1255;107530;-79
2023/06/08 04:47:16;;;;;;;7.90;6.70;;;;;;;19.61;61.30;100344.00;130988;1256;107499;-79
2023/06/08 04:50:22;;;;;;;7.90;7.10;;;;;;;19.71;61.24;100343.45;130842;1251;107519;-81
2023/06/08 04:53:33;;;;;;;7.00;6.30;;;;;;;19.85;61.33;100349.11;131064;1258;107477;-80
2023/06/08 04:56:41;;;;;;;6.60;6.00;;;;;;;20.01;61.14;100344.95;130868;1253;107488;-80
2023/06/08 04:59:46;;;;;;;7.60;5.90;;;;;;;20.13;61.04;100349.50;131033;1254;107646;-80
2023/06/08 05:02:51;;;;;;;9.10;6.00;;;;;;;20.26;61.05;100350.65;131001;1256;107630;-80
2023/06/08 05:05:57;;;;;;;8.30;5.80;;;;;;;20.37;60.92;100349.52;130948;1257;138226;-80
2023/06/08 05:09:03;;;;;;;7.10;6.10;;;;;;;20.45;60.71;100349.03;131112;1257;107617;-80
2023/06/08 05:12:10;;;;;;;6.30;5.70;;;;;;;20.54;60.68;100346.94;130996;1253;107470;-80
2023/06/08 05:15:16;;;;;;;6.00;5.40;;;;;;;20.67;60.62;100347.73;131080;1257;107410;-80
2023/06/08 05:18:22;;;;;;;6.40;5.70;;;;;;;20.81;60.35;100345.94;130978;1266;107446;-81
2023/06/08 05:21:27;;;;;;;7.20;5.80;;;;;;;20.92;60.21;100349.80;131144;1267;107585;-80
2023/06/08 05:24:33;;;;;;;7.10;5.70;;;;;;;20.98;60.03;100350.59;131022;1251;108154;-81
2023/06/08 05:27:39;;;;;;;6.50;5.80;;;;;;;21.07;59.97;100353.52;131228;1265;107371;-82
2023/06/08 05:30:45;;;;;;;6.10;5.50;;;;;;;21.13;59.83;100353.15;131110;1257;107650;-81
2023/06/08 05:33:51;;;;;;;6.00;5.40;;;;;;;21.25;59.87;100354.11;131072;1251;107440;-80
2023/06/08 05:36:56;;;;;;;6.90;5.10;;;;;;;21.33;59.54;100350.98;131153;1254;107239;-81
2023/06/08 05:40:02;;;;;;;5.90;5.20;;;;;;;21.38;59.32;100348.09;131087;1257;107620;-79
2023/06/08 05:43:08;;;;;;;6.90;5.20;;;;;;;21.43;58.97;100345.83;131157;1255;107218;-80
2023/06/08 05:46:15;;;;;;;5.20;4.70;;;;;;;21.46;58.89;100344.05;131177;1251;107204;-81
2023/06/08 05:49:20;;;;;;;6.50;5.00;;;;;;;21.52;58.88;100344.95;130943;1254;107142;-81
2023/06/08 05:52:26;;;;;;;7.00;5.40;;;;;;;21.58;58.93;100344.78;131074;1257;107504;-81
2023/06/08 05:55:31;;;;;;;6.50;5.60;;;;;;;21.63;58.48;100343.73;131157;1265;107614;-81
2023/06/08 05:58:37;;;;;;;7.00;6.10;;;;;;;21.67;58.33;100346.66;131062;1257;107527;-80
2023/06/08 06:01:42;;;;;;;7.00;6.30;;;;;;;21.69;58.16;100346.23;131074;1258;107498;-80
2023/06/08 06:04:48;;;;;;;8.00;6.70;;;;;;;21.70;58.37;100352.02;130987;1256;107541;-79
2023/06/08 06:07:53;;;;;;;7.50;6.70;;;;;;;21.68;58.15;100347.02;131026;1251;108576;-79
2023/06/08 06:10:59;;;;;;;7.60;6.10;;;;;;;21.68;57.88;100348.74;131051;1256;107245;-80
2023/06/08 06:14:04;;;;;;;8.40;6.00;;;;;;;21.67;57.99;100343.70;131218;1254;107259;-80
2023/06/08 06:17:11;;;;;;;6.80;5.50;;;;;;;21.67;57.97;100345.31;131162;1255;107587;-79
2023/06/08 06:20:17;;;;;;;6.40;5.20;;;;;;;21.69;57.51;100343.55;131221;1258;107643;-80
2023/06/08 06:23:23;;;;;;;5.90;5.20;;;;;;;21.70;57.40;100344.13;130960;1256;107517;-80
2023/06/08 06:26:29;;;;;;;5.70;5.10;;;;;;;21.68;57.15;100343.69;131112;1256;107451;-78
2023/06/08 06:29:35;;;;;;;5.80;5.20;;;;;;;21.64;57.12;100345.36;130969;1257;107534;-79
2023/06/08 06:32:40;;;;;;;5.60;4.80;;;;;;;21.60;56.87;100346.15;130973;1264;107420;-78
2023/06/08 06:35:46;;;;;;;5.20;4.70;;;;;;;21.60;56.59;100344.52;131129;1253;107280;-82
2023/06/08 06:38:52;;;;;;;6.70;5.60;;;;;;;21.62;56.51;100347.04;131159;1263;107618;-82
2023/06/08 06:41:57;;;;;;;7.40;6.00;;;;;;;21.60;56.11;100351.95;131169;1256;107534;-83
2023/06/08 06:45:11;;;;;;;7.40;6.10;;;;;;;21.58;56.11;100350.55;131213;1256;107509;-82
2023/06/08 06:48:17;;;;;;;8.90;7.30;;;;;;;21.57;56.10;100351.60;131165;1254;107786;-83
2023/06/08 06:51:22;;;;;;;8.00;7.20;;;;;;;21.56;56.03;100347.05;131121;1257;106704;-80
2023/06/08 06:54:28;;;;;;;8.10;7.20;;;;;;;21.57;55.88;100345.96;131081;1255;108653;-83
2023/06/08 06:57:34;;;;;;;7.70;6.90;;;;;;;21.56;55.93;100348.48;130791;1254;107515;-83
2023/06/08 07:00:40;;;;;;;7.60;6.90;;;;;;;21.62;56.13;100346.50;131120;1257;107921;-83
2023/06/08 07:03:46;;;;;;;8.00;7.10;;;;;;;21.66;55.87;100343.58;131103;1256;107539;-85
2023/06/08 07:06:53;;;;;;;9.80;7.40;;;;;;;21.69;55.99;100341.55;131223;1257;106643;-88
2023/06/08 07:09:58;;;;;;;8.20;7.20;;;;;;;21.79;56.09;100341.02;131127;1256;107486;-83
2023/06/08 07:13:04;;;;;;;8.00;7.20;;;;;;;21.87;55.97;100337.47;131110;1256;107536;-83
2023/06/08 07:16:09;;;;;;;9.20;7.80;;;;;;;21.90;55.83;100336.94;131065;1256;107559;-80
2023/06/08 07:19:15;;;;;;;8.60;7.80;;;;;;;21.96;55.66;100333.95;131097;1256;107540;-87
2023/06/08 07:22:20;;;;;;;8.00;7.20;;;;;;;22.02;55.52;100328.78;131125;1256;108513;-86
2023/06/08 07:25:26;;;;;;;7.70;6.30;;;;;;;22.03;55.28;100326.21;131104;1256;107537;-87
2023/06/08 07:28:31;;;;;;;8.00;6.80;;;;;;;22.07;55.36;100327.46;131113;1253;107514;-83
2023/06/08 07:31:39;;;;;;;7.20;6.50;;;;;;;22.13;55.44;100326.85;131030;1263;107510;-83
2023/06/08 07:34:46;;;;;;;7.90;6.40;;;;;;;22.21;55.24;100329.67;131070;1256;107417;-82
2023/06/08 07:37:52;;;;;;;8.30;7.00;;;;;;;22.27;54.75;100323.73;131090;1267;107274;-82
2023/06/08 07:40:57;;;;;;;7.70;6.40;;;;;;;22.28;54.94;100321.04;131007;1251;107423;-81
2023/06/08 07:44:06;;;;;;;7.60;6.50;;;;;;;22.35;54.82;100323.63;131183;1253;107545;-84
2023/06/08 07:47:12;;;;;;;6.40;5.80;;;;;;;22.42;54.78;100323.04;131201;1253;106380;-83
2023/06/08 07:50:17;;;;;;;6.50;5.90;;;;;;;22.48;54.58;100319.04;131209;1256;108082;-84
2023/06/08 07:53:24;;;;;;;6.30;5.20;;;;;;;22.57;54.58;100320.14;131190;1251;107947;-84
2023/06/08 07:56:29;;;;;;;5.60;5.10;;;;;;;22.67;54.18;100318.89;131089;1256;107539;-85
2023/06/08 07:59:35;;;;;;;6.70;5.10;;;;;;;22.71;53.90;100324.23;131108;1254;108105;-84
2023/06/08 08:02:40;;;;;;;5.10;4.50;;;;;;;22.76;53.88;100322.31;131029;1253;107138;-85
2023/06/08 08:05:48;;;;;;;4.80;4.30;;;;;;;22.83;53.61;100317.95;130998;1257;107599;-84
2023/06/08 08:08:54;;;;;;;5.30;4.10;;;;;;;22.91;53.23;100317.73;131051;1251;107551;-84
2023/06/08 08:12:00;;;;;;;4.90;4.30;;;;;;;22.97;53.35;100320.23;130986;1256;107534;-82
2023/06/08 08:15:07;;;;;;;4.70;4.20;;;;;;;23.04;53.15;100318.81;131273;1256;107590;-81
2023/06/08 08:18:13;;;;;;;4.50;4.00;;;;;;;23.10;52.83;100320.94;131259;1256;107366;-89
2023/06/08 08:21:19;;;;;;;5.80;4.10;;;;;;;23.12;52.68;100317.77;131188;1256;106670;-82
2023/06/08 08:24:25;;;;;;;5.00;4.10;;;;;;;23.19;51.65;100314.39;130988;1257;107435;-85
2023/06/08 08:27:30;;;;;;;4.40;4.00;;;;;;;23.17;51.51;100314.04;131060;1256;108541;-82
2023/06/08 08:30:36;;;;;;;4.70;4.20;;;;;;;23.16;51.46;100316.62;131150;1256;107510;-81
2023/06/08 08:33:43;;;;;;;5.80;4.00;;;;;;;23.21;51.13;100312.45;131004;1257;107585;-80
2023/06/08 08:36:49;;;;;;;5.80;4.10;;;;;;;23.24;51.24;100310.48;131059;1256;107550;-82
2023/06/08 08:39:55;;;;;;;5.20;3.80;;;;;;;23.31;51.22;100309.31;131059;1253;107747;-85
2023/06/08 08:43:10;;;;;;;4.40;4.00;;;;;;;23.35;50.70;100303.52;131252;1251;107811;-80
2023/06/08 08:46:17;;;;;;;5.10;3.60;;;;;;;23.40;50.66;100307.95;131143;1256;107402;-80
2023/06/08 08:49:24;;;;;;;3.90;3.50;;;;;;;23.45;50.43;100306.98;131046;1256;108513;-81
2023/06/08 08:52:33;;;;;;;5.20;3.50;;;;;;;23.51;50.20;100308.80;131085;1253;108243;-81
2023/06/08 08:55:41;;;;;;;3.80;3.40;;;;;;;23.53;50.26;100304.66;131229;1256;107267;-84
2023/06/08 08:58:48;;;;;;;3.90;3.20;;;;;;;23.61;50.09;100300.13;131095;1256;107514;-84
2023/06/08 09:01:54;;;;;;;4.10;3.30;;;;;;;23.70;50.03;100303.49;131146;1256;106224;-83
2023/06/08 09:04:59;;;;;;;4.10;3.40;;;;;;;23.77;49.32;100310.08;131094;1252;107452;-84
2023/06/08 09:08:05;;;;;;;3.70;3.10;;;;;;;23.83;49.31;100303.64;131177;1256;106567;-80
2023/06/08 09:11:11;;;;;;;3.30;3.00;;;;;;;23.89;48.64;100304.34;131164;1256;107550;-81
2023/06/08 09:14:17;;;;;;;4.40;3.00;;;;;;;23.92;48.81;100298.88;131278;1256;109125;-84
2023/06/08 09:17:37;;;;;;;3.50;3.00;;;;;;;24.00;49.06;100297.26;131311;1256;108055;-83
2023/06/08 09:20:42;;;;;;;4.80;3.40;;;;;;;24.08;47.85;100300.30;131647;1256;107453;-83
2023/06/08 09:24:03;;;;;;;4.00;3.00;;;;;;;24.12;48.16;100299.23;131172;1256;107572;-84
2023/06/08 09:27:10;;;;;;;3.40;3.10;;;;;;;24.17;48.32;100297.65;131107;1257;107468;-81
2023/06/08 09:30:26;;;;;;;5.10;3.10;;;;;;;24.25;48.21;100300.52;131194;1255;107554;-83
2023/06/08 09:33:33;;;;;;;3.80;3.10;;;;;;;24.29;47.71;100294.08;131024;1256;107518;-81
2023/06/08 09:36:39;;;;;;;4.10;3.20;;;;;;;24.32;47.86;100286.80;131424;1251;107453;-82
2023/06/08 09:39:45;;;;;;;3.70;3.00;;;;;;;24.34;46.66;100286.72;132478;1252;107522;-83
2023/06/08 09:42:53;;;;;;;4.70;3.40;;;;;;;24.32;47.02;100291.71;132050;1252;107371;-82
2023/06/08 09:45:59;;;;;;;4.60;3.20;;;;;;;24.38;47.22;100290.91;131271;1254;107249;-81
2023/06/08 09:49:07;;;;;;;4.70;2.90;;;;;;;24.45;46.70;100293.11;131088;1256;107470;-82
2023/06/08 09:52:13;;;;;;;4.90;3.20;;;;;;;24.49;46.58;100287.37;131063;1256;108790;-81
2023/06/08 09:55:21;;;;;;;4.80;3.00;;;;;;;24.56;46.63;100283.90;131200;1256;107508;-83
2023/06/08 09:58:29;;;;;;;3.80;2.90;;;;;;;24.64;46.78;100281.42;131115;1252;107636;-82
2023/06/08 10:01:40;;;;;;;4.30;3.00;;;;;;;24.70;46.70;100282.04;131041;1256;107574;-83
2023/06/08 10:04:50;;;;;;;4.80;3.00;;;;;;;24.76;46.24;100285.89;131149;1256;107487;-82
2023/06/08 10:07:59;;;;;;;4.40;3.10;;;;;;;24.79;46.09;100282.56;131075;1256;107563;-81
2023/06/08 10:11:10;;;;;;;5.20;3.10;;;;;;;24.82;45.98;100280.83;131110;1256;107400;-80
2023/06/08 10:14:17;;;;;;;4.10;3.40;;;;;;;24.83;45.25;100276.73;131098;1253;107528;-81
2023/06/08 10:17:23;;;;;;;4.30;3.30;;;;;;;24.80;45.63;100274.41;131069;1256;107499;-82
2023/06/08 10:20:30;;;;;;;5.30;3.20;;;;;;;24.83;45.66;100269.31;131100;1256;107237;-81
2023/06/08 10:23:37;;;;;;;5.30;3.00;;;;;;;24.87;45.48;100271.79;131035;1263;107240;-81
2023/06/08 10:26:44;;;;;;;3.90;3.00;;;;;;;24.89;45.12;100268.27;131143;1253;107539;-83
2023/06/08 10:29:57;;;;;;;3.80;3.40;;;;;;;24.88;45.08;100272.56;131040;1257;107249;-80
2023/06/08 10:33:10;;;;;;;6.90;3.10;;;;;;;24.85;45.20;100271.27;131051;1252;107237;-81
2023/06/08 10:36:16;;;;;;;5.30;3.50;;;;;;;24.90;45.33;100269.09;131031;1253;107662;-82
2023/06/08 10:39:21;;;;;;;4.30;3.10;;;;;;;24.94;45.02;100258.61;131014;1256;107503;-82
2023/06/08 10:42:27;;;;;;;5.00;3.50;;;;;;;24.96;44.93;100251.89;131031;1251;107628;-83
2023/06/08 10:45:36;;;;;;;4.80;3.60;;;;;;;24.97;44.24;100249.45;131042;1254;107263;-82
2023/06/08 10:48:42;;;;;;;4.30;3.40;;;;;;;25.00;44.72;100247.77;131050;1256;107385;-82
2023/06/08 10:51:54;;;;;;;4.90;3.30;;;;;;;25.04;44.77;100247.61;131185;1253;107291;-81
2023/06/08 10:55:11;;;;;;;3.90;3.00;;;;;;;25.08;44.65;100240.95;131229;1256;107433;-81
2023/06/08 10:58:22;;;;;;;6.60;3.40;;;;;;;25.14;44.49;100239.39;131126;1263;106253;-79
2023/06/08 11:01:32;;;;;;;5.50;3.50;;;;;;;25.19;44.40;100239.30;131195;1256;107438;-81
2023/06/08 11:04:38;;;;;;;4.30;3.30;;;;;;;25.21;44.38;100232.34;131089;1254;107726;-82
2023/06/08 11:07:45;;;;;;;3.90;3.50;;;;;;;25.26;44.55;100225.08;131037;1256;107429;-84
2023/06/08 11:10:57;;;;;;;4.40;3.80;;;;;;;25.31;44.40;100219.09;131059;1256;107509;-85
2023/06/08 11:14:03;;;;;;;5.20;3.60;;;;;;;25.37;44.31;100219.92;131108;1253;107462;-83
2023/06/08 11:17:09;;;;;;;4.50;3.40;;;;;;;25.41;44.28;100218.73;131023;1256;107562;-84
2023/06/08 11:20:17;;;;;;;6.00;4.60;;;;;;;25.44;43.63;100217.64;130984;1256;106110;-82
2023/06/08 11:23:22;;;;;;;8.70;3.90;;;;;;;25.44;43.34;100212.16;131110;1253;107553;-83
2023/06/08 11:26:28;;;;;;;4.60;3.50;;;;;;;25.47;43.59;100219.63;131081;1256;106624;-83
2023/06/08 11:29:34;;;;;;;4.40;3.50;;;;;;;25.48;43.42;100216.80;131117;1255;107377;-84
2023/06/08 11:32:42;;;;;;;4.00;3.30;;;;;;;25.51;43.51;100213.46;131016;1253;107514;-83
2023/06/08 11:35:51;;;;;;;4.40;3.30;;;;;;;25.59;43.63;100211.04;131120;1254;107637;-85
2023/06/08 11:38:57;;;;;;;4.90;3.40;;;;;;;25.69;43.31;100206.91;131055;1256;107380;-83
2023/06/08 11:42:03;;;;;;;3.80;3.30;;;;;;;25.73;43.36;100206.19;131058;1256;107562;-84
2023/06/08 11:45:11;;;;;;;4.80;3.40;;;;;;;25.72;43.21;100207.98;131247;1256;108687;-83
2023/06/08 11:48:17;;;;;;;5.60;3.20;;;;;;;25.72;43.16;100206.83;131156;1256;108019;-84
2023/06/08 11:51:25;;;;;;;4.60;3.10;;;;;;;25.73;43.00;100205.87;131132;1251;107081;-85
2023/06/08 11:54:36;;;;;;;4.50;3.60;;;;;;;25.80;43.10;100201.08;131223;1251;107240;-84
2023/06/08 11:57:43;;;;;;;4.00;3.50;;;;;;;25.87;42.68;100202.58;131186;1256;107874;-84
2023/06/08 12:00:49;;;;;;;4.10;3.40;;;;;;;25.88;41.98;100197.30;131198;1252;107390;-83
2023/06/08 12:03:54;;;;;;;5.20;3.50;;;;;;;25.87;41.50;100198.32;131276;1253;107503;-85
2023/06/08 12:07:07;;;;;;;5.00;3.70;;;;;;;25.71;42.00;100193.27;130981;1254;107445;-83
2023/06/08 12:10:13;;;;;;;5.90;3.70;;;;;;;25.67;42.34;100188.57;130961;1253;107408;-83
2023/06/08 12:13:19;;;;;;;4.90;3.40;;;;;;;25.75;41.81;100184.45;130967;1258;107519;-85
2023/06/08 12:16:25;;;;;;;3.60;3.30;;;;;;;25.79;41.97;100179.69;131045;1259;107386;-83
2023/06/08 12:19:31;;;;;;;4.30;3.30;;;;;;;25.90;42.24;100174.69;131027;1252;107241;-81
2023/06/08 12:22:37;;;;;;;3.90;3.10;;;;;;;25.92;42.02;100179.85;130934;1257;107418;-80
2023/06/08 12:25:43;;;;;;;4.60;3.50;;;;;;;25.94;41.88;100172.39;130963;1253;107554;-81
2023/06/08 12:28:48;;;;;;;6.00;3.80;;;;;;;25.92;41.52;100166.64;130937;1253;108416;-79
2023/06/08 12:31:54;;;;;;;4.90;3.40;;;;;;;25.96;41.46;100166.95;131070;1253;107279;-79
2023/06/08 12:35:00;;;;;;;4.90;3.50;;;;;;;26.03;41.54;100163.69;130931;1257;107561;-80
2023/06/08 12:38:07;;;;;;;4.70;3.50;;;;;;;26.12;41.30;100163.95;130909;1254;108533;-82
2023/06/08 12:41:13;;;;;;;5.60;3.30;;;;;;;26.20;41.09;100163.20;131020;1253;107535;-81
2023/06/08 12:44:19;;;;;;;6.30;3.50;;;;;;;26.25;40.92;100161.34;130897;1253;107551;-82
2023/06/08 12:47:24;;;;;;;4.00;3.40;;;;;;;26.32;40.76;100157.44;130932;1253;107611;-82
2023/06/08 12:50:30;;;;;;;6.00;3.50;;;;;;;26.34;40.69;100150.95;131042;1259;107466;-82
2023/06/08 12:53:37;;;;;;;4.30;3.40;;;;;;;26.38;39.87;100148.27;131052;1257;107442;-84
2023/06/08 12:56:45;;;;;;;5.70;3.80;;;;;;;26.42;39.67;100138.23;131020;1253;107669;-82
2023/06/08 12:59:50;;;;;;;4.40;3.30;;;;;;;26.45;39.90;100138.58;131079;1257;108708;-82
2023/06/08 13:02:57;;;;;;;5.20;3.10;;;;;;;26.41;39.50;100135.97;131003;1258;107563;-83
2023/06/08 13:06:03;;;;;;;4.90;3.50;;;;;;;26.34;39.54;100127.91;131175;1253;108668;-80
2023/06/08 13:09:10;;;;;;;5.00;3.60;;;;;;;26.39;39.66;100129.89;130940;1255;107402;-82
2023/06/08 13:12:15;;;;;;;5.70;3.40;;;;;;;26.48;39.57;100132.80;131093;1256;107520;-82
2023/06/08 13:15:21;;;;;;;3.70;3.30;;;;;;;26.50;39.23;100131.77;131086;1256;108198;-80
2023/06/08 13:18:27;;;;;;;4.50;3.50;;;;;;;26.59;39.38;100126.67;131011;1256;107387;-81
2023/06/08 13:21:33;;;;;;;4.50;3.50;;;;;;;26.72;38.99;100122.98;131375;1252;107196;-82
2023/06/08 13:24:40;;;;;;;5.20;3.50;;;;;;;26.76;38.56;100115.08;130991;1257;108602;-81
2023/06/08 13:27:45;;;;;;;4.30;3.00;;;;;;;26.77;38.51;100113.75;131232;1256;107622;-81
2023/06/08 13:30:51;;;;;;;4.80;3.40;;;;;;;26.83;38.72;100115.78;131159;1256;108393;-82
2023/06/08 13:33:56;;;;;;;3.80;3.20;;;;;;;26.88;38.70;100112.02;131030;1256;107427;-80
2023/06/08 13:37:02;;;;;;;6.10;3.60;;;;;;;26.90;38.34;100109.30;130993;1256;107541;-81
2023/06/08 13:40:10;;;;;;;4.50;3.20;;;;;;;26.92;38.33;100109.48;131078;1255;107513;-81
2023/06/08 13:43:16;;;;;;;3.60;3.20;;;;;;;26.99;38.44;100099.27;131097;1256;107501;-80
2023/06/08 13:46:22;;;;;;;7.10;3.20;;;;;;;27.11;38.28;100101.31;131133;1254;107309;-83
2023/06/08 13:49:28;;;;;;;3.20;2.90;;;;;;;27.17;37.71;100108.67;131230;1256;107372;-84
2023/06/08 13:52:33;;;;;;;3.50;3.10;;;;;;;27.19;37.42;100103.41;131157;1253;107525;-84
2023/06/08 13:55:39;;;;;;;3.30;3.00;;;;;;;27.16;37.40;100101.39;131093;1252;107319;-84
2023/06/08 13:58:45;;;;;;;4.80;3.20;;;;;;;27.12;36.77;100099.94;131075;1256;107574;-85
2023/06/08 14:01:50;;;;;;;5.60;3.10;;;;;;;27.05;37.54;100100.39;131145;1256;107369;-84
2023/06/08 14:04:56;;;;;;;4.60;3.00;;;;;;;27.08;37.52;100100.23;130968;1253;107248;-84
2023/06/08 14:08:02;;;;;;;4.90;3.30;;;;;;;27.17;36.85;100098.11;130937;1253;107291;-85
2023/06/08 14:15:52;;;;;;;6.10;3.00;;;;;;;27.28;37.00;100092.04;130427;1261;109332;-84